createdAt,value
2019-04-25T00:00:38.854Z,8.90
2019-04-25T00:03:08.221Z,8.13
2019-04-25T00:05:37.114Z,10.27
2019-04-25T00:08:06.490Z,16.97
2019-04-25T00:10:35.257Z,16.10
2019-04-25T00:13:05.148Z,12.70
2019-04-25T00:15:34.025Z,14.50
2019-04-25T00:18:02.764Z,17.07
2019-04-25T00:20:33.117Z,17.53
2019-04-25T00:23:18.549Z,11.97
2019-04-25T00:25:49.228Z,16.33
2019-04-25T00:28:18.096Z,14.50
2019-04-25T00:30:46.877Z,16.03
2019-04-25T00:33:15.685Z,15.60
2019-04-25T00:35:45.668Z,12.53
2019-04-25T00:38:14.566Z,11.77
2019-04-25T00:40:43.937Z,11.50
2019-04-25T00:43:13.595Z,13.40
2019-04-25T00:45:43.594Z,11.03
2019-04-25T00:48:12.856Z,10.40
2019-04-25T00:50:42.651Z,13.70
2019-04-25T00:53:12.217Z,14.63
2019-04-25T00:55:42.223Z,12.57
2019-04-25T00:58:15.687Z,10.53
2019-04-25T01:00:55.436Z,8.17
2019-04-25T01:03:25.758Z,8.50
2019-04-25T01:05:54.664Z,7.50
2019-04-25T01:08:23.576Z,7.30
2019-04-25T01:10:53.174Z,8.47
2019-04-25T01:13:22.375Z,17.37
2019-04-25T01:15:52.883Z,9.27
2019-04-25T01:18:23.186Z,7.20
2019-04-25T01:20:53.599Z,8.90
2019-04-25T01:23:23.686Z,8.15
2019-04-25T01:25:53.741Z,7.97
2019-04-25T01:28:24.354Z,8.10
2019-04-25T01:30:54.218Z,7.17
2019-04-25T01:33:24.086Z,8.00
2019-04-25T01:35:57.391Z,10.20
2019-04-25T01:38:43.330Z,7.93
2019-04-25T01:41:19.663Z,10.50
2019-04-25T01:43:57.088Z,9.07
2019-04-25T01:46:24.315Z,7.93
2019-04-25T01:48:54.485Z,6.97
2019-04-25T01:51:24.049Z,5.70
2019-04-25T01:53:54.560Z,7.17
2019-04-25T01:56:24.818Z,8.87
2019-04-25T01:58:54.756Z,7.70
2019-04-25T02:01:24.177Z,9.37
2019-04-25T02:03:54.152Z,11.77
2019-04-25T02:06:24.771Z,7.97
2019-04-25T02:08:55.272Z,7.47
2019-04-25T02:11:25.780Z,7.83
2019-04-25T02:13:54.976Z,8.27
2019-04-25T02:16:25.235Z,9.13
2019-04-25T02:18:55.116Z,9.13
2019-04-25T02:21:24.504Z,10.23
2019-04-25T02:23:55.441Z,8.57
2019-04-25T02:26:24.127Z,12.00
2019-04-25T02:28:55.159Z,10.13
2019-04-25T02:31:24.672Z,8.33
2019-04-25T02:33:56.697Z,6.53
2019-04-25T02:36:24.675Z,10.72
2019-04-25T02:38:57.263Z,7.03
2019-04-25T02:41:25.034Z,7.30
2019-04-25T02:43:56.283Z,8.07
2019-04-25T02:46:41.364Z,7.80
2019-04-25T02:49:29.335Z,7.08
2019-04-25T02:51:49.791Z,7.00
2019-04-25T02:54:18.561Z,9.57
2019-04-25T02:56:47.362Z,7.70
2019-04-25T02:59:16.114Z,4.83
2019-04-25T03:01:44.851Z,8.10
2019-04-25T03:04:14.463Z,8.30
2019-04-25T03:06:45.278Z,8.93
2019-04-25T03:09:15.431Z,6.00
2019-04-25T03:11:45.155Z,6.70
2019-04-25T03:14:14.968Z,8.00
2019-04-25T03:16:44.815Z,6.87
2019-04-25T03:19:15.403Z,7.10
2019-04-25T03:21:45.811Z,5.33
2019-04-25T03:24:16.827Z,8.85
2019-04-25T03:26:45.051Z,8.20
2019-04-25T03:29:13.787Z,7.20
2019-04-25T03:31:45.008Z,9.17
2019-04-25T03:34:16.950Z,10.10
2019-04-25T03:36:43.991Z,4.57
2019-04-25T03:39:14.540Z,5.80
2019-04-25T03:41:43.891Z,6.30
2019-04-25T03:44:14.014Z,10.73
2019-04-25T03:46:43.803Z,8.47
2019-04-25T03:49:13.923Z,6.80
2019-04-25T03:51:43.899Z,7.53
2019-04-25T03:54:14.241Z,6.85
2019-04-25T03:56:53.316Z,5.80
2019-04-25T03:59:14.684Z,6.57
2019-04-25T04:01:44.170Z,6.93
2019-04-25T04:04:15.776Z,5.37
2019-04-25T04:06:46.933Z,4.03
2019-04-25T04:09:16.031Z,4.90
2019-04-25T04:11:44.901Z,4.23
2019-04-25T04:14:15.403Z,5.80
2019-04-25T04:17:01.819Z,4.47
2019-04-25T04:19:33.741Z,6.70
2019-04-25T04:22:15.119Z,8.33
2019-04-25T04:24:45.386Z,5.47
2019-04-25T04:27:16.689Z,4.78
2019-04-25T04:29:45.587Z,7.53
2019-04-25T04:32:14.844Z,7.53
2019-04-25T04:34:45.515Z,5.67
2019-04-25T04:37:15.793Z,6.17
2019-04-25T04:39:44.895Z,6.40
2019-04-25T04:42:14.057Z,5.60
2019-04-25T04:44:43.899Z,5.13
2019-04-25T04:47:15.000Z,7.05
2019-04-25T04:49:43.957Z,5.30
2019-04-25T04:52:14.335Z,7.55
2019-04-25T04:54:43.978Z,5.10
2019-04-25T04:57:24.599Z,3.90
2019-04-25T04:59:43.885Z,4.43
2019-04-25T05:02:29.111Z,4.93
2019-04-25T05:05:15.973Z,4.17
2019-04-25T05:07:46.355Z,4.83
2019-04-25T05:10:17.718Z,3.27
2019-04-25T05:12:45.572Z,3.60
2019-04-25T05:15:16.194Z,2.50
2019-04-25T05:17:44.920Z,2.80
2019-04-25T05:20:16.023Z,2.23
2019-04-25T05:22:44.586Z,1.73
2019-04-25T05:25:16.228Z,1.43
2019-04-25T05:27:57.721Z,2.83
2019-04-25T05:30:16.995Z,2.97
2019-04-25T05:32:46.756Z,2.45
2019-04-25T05:35:17.728Z,3.80
2019-04-25T05:37:46.907Z,2.13
2019-04-25T05:40:17.073Z,2.50
2019-04-25T05:42:47.687Z,1.90
2019-04-25T05:45:18.581Z,4.65
2019-04-25T05:47:47.982Z,1.30
2019-04-25T05:50:16.724Z,3.35
2019-04-25T05:52:46.023Z,2.47
2019-04-25T05:55:17.321Z,0.90
2019-04-25T05:57:50.216Z,2.30
2019-04-25T06:00:19.051Z,2.53
2019-04-25T06:02:47.938Z,3.33
2019-04-25T06:05:19.061Z,2.13
2019-04-25T06:07:47.944Z,4.23
2019-04-25T06:10:25.680Z,2.20
2019-04-25T06:13:13.756Z,4.40
2019-04-25T06:15:44.354Z,2.10
2019-04-25T06:18:21.203Z,6.83
2019-04-25T06:20:50.008Z,2.73
2019-04-25T06:23:36.535Z,8.67
2019-04-25T06:26:19.133Z,2.53
2019-04-25T06:28:35.793Z,3.30
2019-04-25T06:31:10.014Z,2.00
2019-04-25T06:33:35.964Z,2.70
2019-04-25T06:36:05.530Z,2.98
2019-04-25T06:38:34.329Z,3.03
2019-04-25T06:41:03.548Z,8.03
2019-04-25T06:43:34.125Z,3.80
2019-04-25T06:46:14.098Z,1.20
2019-04-25T06:48:45.627Z,1.87
2019-04-25T06:51:14.473Z,3.27
2019-04-25T06:53:43.702Z,1.13
2019-04-25T06:56:13.668Z,3.50
2019-04-25T06:58:43.881Z,1.67
2019-04-25T07:01:13.462Z,6.42
2019-04-25T07:03:44.132Z,1.83
2019-04-25T07:06:14.553Z,2.62
2019-04-25T07:08:44.800Z,3.90
2019-04-25T07:11:14.042Z,4.67
2019-04-25T07:13:43.854Z,6.13
2019-04-25T07:16:13.493Z,1.73
2019-04-25T07:18:43.587Z,1.47
2019-04-25T07:21:14.094Z,4.30
2019-04-25T07:23:45.991Z,2.00
2019-04-25T07:26:16.149Z,4.27
2019-04-25T07:29:01.630Z,1.90
2019-04-25T07:31:35.701Z,6.53
2019-04-25T07:34:06.481Z,9.60
2019-04-25T07:36:36.233Z,5.03
2019-04-25T07:39:10.496Z,4.00
2019-04-25T07:41:39.077Z,4.03
2019-04-25T07:44:07.876Z,2.20
2019-04-25T07:46:39.525Z,1.87
2019-04-25T07:49:07.099Z,2.10
2019-04-25T07:51:36.704Z,2.63
2019-04-25T07:54:05.676Z,1.83
2019-04-25T07:56:35.559Z,3.97
2019-04-25T07:59:07.269Z,3.80
2019-04-25T08:01:37.648Z,2.00
2019-04-25T08:04:06.767Z,3.30
2019-04-25T08:06:35.793Z,4.40
2019-04-25T08:09:08.244Z,5.53
2019-04-25T08:11:38.271Z,2.00
2019-04-25T08:14:08.922Z,8.53
2019-04-25T08:16:39.321Z,1.93
2019-04-25T08:19:08.222Z,2.37
2019-04-25T08:21:36.984Z,4.17
2019-04-25T08:24:05.864Z,1.80
2019-04-25T08:26:36.342Z,1.10
2019-04-25T08:29:05.613Z,2.77
2019-04-25T08:31:35.239Z,3.40
2019-04-25T08:34:05.126Z,6.23
2019-04-25T08:36:38.180Z,2.40
2019-04-25T08:39:07.667Z,5.67
2019-04-25T08:41:37.001Z,2.67
2019-04-25T08:44:05.983Z,5.03
2019-04-25T08:46:36.801Z,3.80
2019-04-25T08:49:10.263Z,2.87
2019-04-25T08:51:44.463Z,8.63
2019-04-25T08:54:23.847Z,3.00
2019-04-25T08:56:54.293Z,5.23
2019-04-25T08:59:44.492Z,4.00
2019-04-25T09:02:26.832Z,6.10
2019-04-25T09:05:14.503Z,1.67
2019-04-25T09:07:45.107Z,7.13
2019-04-25T09:10:15.227Z,3.17
2019-04-25T09:12:45.009Z,3.07
2019-04-25T09:15:14.668Z,2.73
2019-04-25T09:17:45.717Z,5.53
2019-04-25T09:20:14.482Z,4.47
2019-04-25T09:22:44.588Z,6.27
2019-04-25T09:25:14.117Z,3.90
2019-04-25T09:27:43.776Z,6.60
2019-04-25T09:30:14.381Z,4.33
2019-04-25T09:32:44.571Z,4.70
2019-04-25T09:35:13.764Z,9.43
2019-04-25T09:37:44.842Z,5.23
2019-04-25T09:40:14.436Z,2.15
2019-04-25T09:42:44.800Z,6.30
2019-04-25T09:45:27.428Z,4.30
2019-04-25T09:47:57.765Z,3.70
2019-04-25T09:50:38.242Z,1.90
2019-04-25T09:53:07.457Z,3.60
2019-04-25T09:55:37.806Z,4.83
2019-04-25T09:58:08.144Z,3.10
2019-04-25T10:00:38.491Z,3.77
2019-04-25T10:03:07.446Z,3.67
2019-04-25T10:05:37.080Z,5.50
2019-04-25T10:08:05.877Z,5.80
2019-04-25T10:10:34.631Z,4.13
2019-04-25T10:13:04.873Z,4.47
2019-04-25T10:15:59.171Z,2.42
2019-04-25T10:18:27.915Z,1.73
2019-04-25T10:20:56.785Z,5.40
2019-04-25T10:23:25.547Z,2.67
2019-04-25T10:25:54.521Z,15.73
2019-04-25T10:28:23.473Z,3.42
2019-04-25T10:30:53.161Z,1.73
2019-04-25T10:33:24.680Z,2.70
2019-04-25T10:35:58.895Z,3.00
2019-04-25T10:38:26.696Z,3.27
2019-04-25T10:40:55.567Z,4.00
2019-04-25T10:43:24.307Z,3.33
2019-04-25T10:45:54.953Z,3.20
2019-04-25T10:48:24.121Z,3.70
2019-04-25T10:50:53.891Z,6.90
2019-04-25T10:53:25.217Z,2.87
2019-04-25T10:55:54.033Z,2.83
2019-04-25T10:58:22.787Z,4.23
2019-04-25T11:00:53.067Z,2.60
2019-04-25T11:03:26.522Z,4.03
2019-04-25T11:05:55.892Z,8.33
2019-04-25T11:08:24.848Z,4.47
2019-04-25T11:10:54.948Z,8.10
2019-04-25T11:13:23.795Z,3.70
2019-04-25T11:15:52.592Z,3.70
2019-04-25T11:18:21.532Z,3.33
2019-04-25T11:20:50.434Z,5.70
2019-04-25T11:23:19.343Z,4.73
2019-04-25T11:25:48.314Z,4.50
2019-04-25T11:28:17.452Z,1.47
2019-04-25T11:30:48.191Z,5.17
2019-04-25T11:33:17.582Z,5.50
2019-04-25T11:35:47.786Z,5.67
2019-04-25T11:38:18.494Z,2.17
2019-04-25T11:40:50.477Z,4.17
2019-04-25T11:43:19.889Z,4.47
2019-04-25T11:45:49.209Z,5.80
2019-04-25T11:48:18.055Z,2.65
2019-04-25T11:50:49.911Z,2.10
2019-04-25T11:53:20.061Z,3.05
2019-04-25T11:55:49.276Z,5.37
2019-04-25T11:58:18.828Z,1.63
2019-04-25T12:00:49.285Z,1.10
2019-04-25T12:03:18.477Z,2.90
2019-04-25T12:05:48.431Z,2.77
2019-04-25T12:08:17.902Z,3.27
2019-04-25T12:10:47.001Z,1.90
2019-04-25T12:13:17.587Z,3.62
2019-04-25T12:15:47.121Z,3.73
2019-04-25T12:18:15.949Z,5.28
2019-04-25T12:20:46.588Z,2.80
2019-04-25T12:23:15.262Z,2.42
2019-04-25T12:25:45.402Z,1.30
2019-04-25T12:28:14.556Z,3.20
2019-04-25T12:30:43.895Z,4.60
2019-04-25T12:33:21.013Z,3.92
2019-04-25T12:35:44.348Z,5.40
2019-04-25T12:38:14.137Z,6.47
2019-04-25T12:40:43.414Z,3.90
2019-04-25T12:43:13.777Z,3.10
2019-04-25T12:45:50.243Z,2.50
2019-04-25T12:48:20.878Z,5.63
2019-04-25T12:50:50.098Z,1.70
2019-04-25T12:53:18.881Z,2.17
2019-04-25T12:55:47.626Z,3.30
2019-04-25T12:58:16.492Z,3.83
2019-04-25T13:00:51.097Z,3.60
2019-04-25T13:03:15.729Z,7.60
2019-04-25T13:05:44.683Z,2.00
2019-04-25T13:08:14.339Z,3.00
2019-04-25T13:10:44.462Z,5.13
2019-04-25T13:13:16.150Z,1.30
2019-04-25T13:15:46.165Z,2.40
2019-04-25T13:18:19.785Z,7.93
2019-04-25T13:20:48.814Z,2.33
2019-04-25T13:23:18.731Z,2.53
2019-04-25T13:25:47.630Z,3.43
2019-04-25T13:28:18.058Z,1.33
2019-04-25T13:31:04.123Z,8.83
2019-04-25T13:33:30.572Z,1.67
2019-04-25T13:36:02.122Z,3.30
2019-04-25T13:38:30.923Z,1.60
2019-04-25T13:40:59.713Z,2.80
2019-04-25T13:43:28.572Z,6.13
2019-04-25T13:45:57.629Z,1.73
2019-04-25T13:48:27.112Z,3.37
2019-04-25T13:50:56.707Z,1.37
2019-04-25T13:53:25.664Z,3.33
2019-04-25T13:55:54.513Z,2.20
2019-04-25T13:58:24.520Z,0.83
2019-04-25T14:00:53.835Z,1.60
2019-04-25T14:03:23.036Z,1.75
2019-04-25T14:05:53.781Z,1.07
2019-04-25T14:08:31.531Z,1.70
2019-04-25T14:11:01.134Z,1.10
2019-04-25T14:13:30.599Z,1.60
2019-04-25T14:16:13.705Z,2.10
2019-04-25T14:18:55.970Z,2.47
2019-04-25T14:21:33.433Z,3.10
2019-04-25T14:24:02.340Z,3.50
2019-04-25T14:26:31.319Z,2.97
2019-04-25T14:29:00.036Z,1.73
2019-04-25T14:31:39.346Z,3.83
2019-04-25T14:34:00.164Z,2.77
2019-04-25T14:36:30.223Z,3.10
2019-04-25T14:38:59.073Z,1.07
2019-04-25T14:41:28.141Z,0.90
2019-04-25T14:43:56.955Z,1.87
2019-04-25T14:46:26.564Z,2.37
2019-04-25T14:48:55.445Z,1.73
2019-04-25T14:51:24.188Z,1.17
2019-04-25T14:53:52.998Z,0.80
2019-04-25T14:56:23.693Z,2.25
2019-04-25T14:58:52.747Z,1.17
2019-04-25T15:01:24.030Z,1.10
2019-04-25T15:03:52.978Z,1.50
2019-04-25T15:06:21.733Z,3.02
2019-04-25T15:08:50.479Z,2.70
2019-04-25T15:11:19.286Z,0.93
2019-04-25T15:13:48.083Z,1.70
2019-04-25T15:16:16.843Z,1.77
2019-04-25T15:18:46.965Z,1.13
2019-04-25T15:21:18.572Z,1.82
2019-04-25T15:23:59.373Z,2.53
2019-04-25T15:26:18.066Z,1.02
2019-04-25T15:28:46.844Z,0.93
2019-04-25T15:31:15.583Z,0.70
2019-04-25T15:33:44.359Z,2.33
2019-04-25T15:36:30.580Z,0.53
2019-04-25T15:39:16.841Z,1.83
2019-04-25T15:42:03.463Z,3.17
2019-04-25T15:44:50.046Z,2.30
2019-04-25T15:47:21.287Z,2.50
2019-04-25T15:49:50.160Z,2.42
2019-04-25T15:52:19.257Z,1.17
2019-04-25T15:54:48.068Z,0.53
2019-04-25T15:57:17.291Z,5.43
2019-04-25T15:59:46.032Z,4.13
2019-04-25T16:02:21.199Z,0.80
2019-04-25T16:04:51.606Z,1.80
2019-04-25T16:07:20.377Z,0.70
2019-04-25T16:09:49.226Z,3.17
2019-04-25T16:12:19.809Z,6.37
2019-04-25T16:14:48.733Z,1.57
2019-04-25T16:17:17.479Z,0.97
2019-04-25T16:19:46.260Z,0.80
2019-04-25T16:22:16.174Z,3.27
2019-04-25T16:24:44.912Z,1.67
2019-04-25T16:27:14.046Z,5.47
2019-04-25T16:29:42.791Z,3.13
2019-04-25T16:32:20.509Z,3.03
2019-04-25T16:34:44.040Z,1.70
2019-04-25T16:37:12.779Z,0.83
2019-04-25T16:39:43.351Z,1.00
2019-04-25T16:42:12.182Z,2.03
2019-04-25T16:44:41.365Z,1.73
2019-04-25T16:47:10.181Z,1.43
2019-04-25T16:49:39.170Z,4.10
2019-04-25T16:52:09.561Z,1.50
2019-04-25T16:54:38.299Z,1.07
2019-04-25T16:57:07.081Z,1.40
2019-04-25T16:59:35.907Z,1.33
2019-04-25T17:02:05.484Z,2.70
2019-04-25T17:04:35.349Z,1.10
2019-04-25T17:07:04.956Z,1.63
2019-04-25T17:09:34.456Z,1.80
2019-04-25T17:12:05.108Z,1.10
2019-04-25T17:14:52.038Z,0.70
2019-04-25T17:17:25.722Z,1.77
2019-04-25T17:19:56.055Z,3.90
2019-04-25T17:22:26.143Z,3.97
2019-04-25T17:24:55.979Z,3.27
2019-04-25T17:27:24.784Z,6.00
2019-04-25T17:29:57.804Z,3.37
2019-04-25T17:32:50.466Z,5.13
2019-04-25T17:35:26.485Z,1.53
2019-04-25T17:38:00.712Z,2.23
2019-04-25T17:40:44.437Z,0.90
2019-04-25T17:43:26.427Z,2.10
2019-04-25T17:45:59.697Z,3.07
2019-04-25T17:48:38.970Z,2.33
2019-04-25T17:51:21.105Z,2.10
2019-04-25T17:53:51.494Z,2.47
2019-04-25T17:56:20.570Z,5.17
2019-04-25T17:58:50.479Z,4.60
2019-04-25T18:01:20.893Z,2.98
2019-04-25T18:03:49.843Z,8.70
2019-04-25T18:06:27.102Z,1.70
2019-04-25T18:09:09.510Z,1.83
2019-04-25T18:11:54.018Z,2.40
2019-04-25T18:14:36.389Z,2.70
2019-04-25T18:17:06.591Z,2.20
2019-04-25T18:19:39.295Z,3.00
2019-04-25T18:22:18.181Z,2.70
2019-04-25T18:24:59.996Z,2.90
2019-04-25T18:27:31.107Z,5.03
2019-04-25T18:30:00.540Z,2.57
2019-04-25T18:32:31.326Z,2.80
2019-04-25T18:35:05.980Z,2.50
2019-04-25T18:37:37.328Z,2.90
2019-04-25T18:40:08.750Z,4.30
2019-04-25T18:42:48.170Z,2.37
2019-04-25T18:45:18.485Z,3.03
2019-04-25T18:47:47.208Z,2.20
2019-04-25T18:50:17.649Z,3.93
2019-04-25T18:52:56.901Z,1.90
2019-04-25T18:55:30.255Z,2.63
2019-04-25T18:58:09.439Z,4.20
2019-04-25T19:00:44.168Z,3.87
2019-04-25T19:03:31.830Z,1.97
2019-04-25T19:06:02.755Z,2.80
2019-04-25T19:08:36.211Z,1.40
2019-04-25T19:11:14.153Z,3.13
2019-04-25T19:13:43.591Z,5.40
2019-04-25T19:16:12.361Z,3.90
2019-04-25T19:18:42.925Z,4.83
2019-04-25T19:21:11.909Z,2.90
2019-04-25T19:23:41.748Z,6.17
2019-04-25T19:26:19.626Z,5.37
2019-04-25T19:28:48.491Z,4.07
2019-04-25T19:31:17.235Z,3.77
2019-04-25T19:33:45.981Z,4.97
2019-04-25T19:36:14.767Z,5.00
2019-04-25T19:38:43.931Z,3.60
2019-04-25T19:41:14.358Z,4.30
2019-04-25T19:43:44.987Z,4.70
2019-04-25T19:46:13.854Z,3.80
2019-04-25T19:48:43.489Z,3.23
2019-04-25T19:51:12.393Z,2.60
2019-04-25T19:53:41.758Z,3.73
2019-04-25T19:56:12.278Z,6.00
2019-04-25T19:58:42.177Z,1.90
2019-04-25T20:01:17.724Z,4.47
2019-04-25T20:03:58.363Z,5.27
2019-04-25T20:06:26.856Z,1.73
2019-04-25T20:09:09.196Z,2.23
2019-04-25T20:11:44.308Z,1.47
2019-04-25T20:14:13.877Z,2.77
2019-04-25T20:16:44.924Z,1.60
2019-04-25T20:19:14.749Z,1.20
2019-04-25T20:21:44.507Z,2.20
2019-04-25T20:24:15.004Z,1.77
2019-04-25T20:26:44.892Z,0.63
2019-04-25T20:29:13.727Z,1.60
2019-04-25T20:31:42.467Z,1.33
2019-04-25T20:34:11.319Z,0.87
2019-04-25T20:36:40.718Z,1.20
2019-04-25T20:39:09.496Z,1.25
2019-04-25T20:41:38.246Z,4.40
2019-04-25T20:44:07.016Z,0.77
2019-04-25T20:46:35.764Z,0.70
2019-04-25T20:49:05.085Z,0.73
2019-04-25T20:51:33.943Z,1.20
2019-04-25T20:54:02.683Z,3.70
2019-04-25T20:56:31.454Z,1.37
2019-04-25T20:59:00.199Z,2.23
2019-04-25T21:01:28.973Z,1.20
2019-04-25T21:03:58.349Z,2.07
2019-04-25T21:06:28.772Z,0.70
2019-04-25T21:08:57.647Z,1.47
2019-04-25T21:11:26.383Z,1.90
2019-04-25T21:14:02.566Z,1.47
2019-04-25T21:16:45.090Z,1.73
2019-04-25T21:19:21.554Z,3.35
2019-04-25T21:21:50.567Z,2.23
2019-04-25T21:24:19.418Z,2.70
2019-04-25T21:26:48.194Z,1.27
2019-04-25T21:29:17.015Z,2.57
2019-04-25T21:31:46.542Z,2.00
2019-04-25T21:34:25.331Z,3.02
2019-04-25T21:36:49.720Z,2.30
2019-04-25T21:39:33.413Z,2.90
2019-04-25T21:42:20.387Z,2.87
2019-04-25T21:44:50.090Z,1.70
2019-04-25T21:47:19.008Z,1.60
2019-04-25T21:49:48.275Z,2.57
2019-04-25T21:52:17.289Z,1.80
2019-04-25T21:54:48.599Z,2.83
2019-04-25T21:57:17.097Z,2.20
2019-04-25T21:59:58.802Z,3.23
2019-04-25T22:02:18.231Z,1.63
2019-04-25T22:04:47.396Z,1.57
2019-04-25T22:07:16.534Z,3.27
2019-04-25T22:09:45.950Z,2.83
2019-04-25T22:12:15.001Z,3.30
2019-04-25T22:14:43.746Z,3.50
2019-04-25T22:17:12.624Z,1.77
2019-04-25T22:19:41.644Z,1.57
2019-04-25T22:22:11.002Z,1.52
2019-04-25T22:24:39.873Z,2.60
2019-04-25T22:27:10.190Z,1.63
2019-04-25T22:29:52.484Z,2.50
2019-04-25T22:32:43.590Z,1.77
2019-04-25T22:35:13.961Z,3.63
2019-04-25T22:37:42.698Z,4.60
2019-04-25T22:40:11.662Z,2.05
2019-04-25T22:42:40.448Z,2.47
2019-04-25T22:45:09.503Z,3.30
2019-04-25T22:47:38.293Z,4.10
2019-04-25T22:50:07.184Z,5.73
2019-04-25T22:52:36.195Z,3.27
2019-04-25T22:55:06.765Z,3.37
2019-04-25T22:57:35.954Z,2.93
2019-04-25T23:00:11.091Z,4.80
2019-04-25T23:02:50.911Z,5.93
2019-04-25T23:05:21.224Z,5.00
2019-04-25T23:07:50.126Z,3.23
2019-04-25T23:10:19.179Z,3.40
2019-04-25T23:12:48.143Z,4.17
2019-04-25T23:15:17.118Z,4.10
2019-04-25T23:17:46.158Z,6.50
2019-04-25T23:20:16.192Z,6.73
2019-04-25T23:22:45.257Z,4.93
2019-04-25T23:25:15.878Z,5.50
2019-04-25T23:27:46.188Z,3.57
2019-04-25T23:30:17.211Z,2.70
2019-04-25T23:32:46.153Z,5.70
2019-04-25T23:35:28.067Z,3.17
2019-04-25T23:37:45.888Z,3.03
2019-04-25T23:40:15.759Z,2.70
2019-04-25T23:42:44.692Z,5.80
2019-04-25T23:45:14.462Z,5.12
2019-04-25T23:47:43.356Z,3.50
2019-04-25T23:50:12.598Z,4.73
2019-04-25T23:52:41.418Z,5.90
2019-04-25T23:55:10.992Z,3.80
2019-04-25T23:57:39.815Z,4.57
